Time;durP1;ratioP1;P1;durP2;ratioP2;P2;SDS_P1;SDS_P2;PMS_P1;PMS_P2;Temp;Humidity;BMP_temperature;BMP_pressure;BME280_temperature;BME280_humidity;BME280_pressure;Samples;Min_cycle;Max_cycle;Signal;HPM_P1;HPM_P2
2022/12/24 00:01:44;;;;;;;6.47;2.63;;;;;;;5.83;100.00;100027.66;6194239;28;20475;-75
2022/12/24 00:04:46;;;;;;;3.83;2.28;;;;;;;5.82;100.00;100027.75;6194428;28;20058;-75
2022/12/24 00:07:48;;;;;;;3.13;2.20;;;;;;;5.79;100.00;100028.72;6197347;28;20054;-76
2022/12/24 00:10:51;;;;;;;9.50;2.58;;;;;;;5.83;100.00;100022.44;6197000;28;20418;-75
2022/12/24 00:13:52;;;;;;;7.05;3.10;;;;;;;5.84;100.00;100024.13;6197707;28;20054;-76
2022/12/24 00:16:53;;;;;;;4.35;2.10;;;;;;;5.88;100.00;100029.22;6202047;28;20050;-75
2022/12/24 00:19:56;;;;;;;2.83;2.13;;;;;;;5.84;100.00;100028.50;6201867;28;20066;-75
2022/12/24 00:22:57;;;;;;;4.68;2.53;;;;;;;5.83;100.00;100017.22;6201599;28;20058;-75
2022/12/24 00:25:58;;;;;;;3.92;1.98;;;;;;;5.79;100.00;100022.66;6201432;28;20510;-75
2022/12/24 00:29:00;;;;;;;8.07;2.10;;;;;;;5.79;100.00;100020.03;6201701;28;20058;-75
2022/12/24 00:32:01;;;;;;;2.90;2.03;;;;;;;5.81;100.00;100024.28;6201451;28;20057;-75
2022/12/24 00:35:04;;;;;;;3.08;2.00;;;;;;;5.81;100.00;100029.50;6201307;28;20047;-75
2022/12/24 00:38:06;;;;;;;4.38;2.03;;;;;;;5.81;100.00;100019.06;6201551;28;20051;-74
2022/12/24 00:41:23;;;;;;;4.50;2.33;;;;;;;5.79;100.00;100027.88;6201235;28;20058;-75
2022/12/24 00:44:24;;;;;;;3.90;2.15;;;;;;;5.76;100.00;100028.84;6201347;28;20078;-75
2022/12/24 00:47:25;;;;;;;4.45;2.17;;;;;;;5.75;100.00;100029.75;6201098;28;20142;-75
2022/12/24 00:50:28;;;;;;;2.95;2.15;;;;;;;5.76;100.00;100023.63;6201314;28;20050;-75
2022/12/24 00:53:29;;;;;;;2.63;1.90;;;;;;;5.76;100.00;100031.44;6200990;28;20050;-76
2022/12/24 00:56:31;;;;;;;4.13;1.77;;;;;;;5.77;100.00;100034.94;6200931;28;20438;-75
2022/12/24 00:59:32;;;;;;;3.35;2.00;;;;;;;5.78;100.00;100040.06;6200605;28;20054;-75
2022/12/24 01:02:33;;;;;;;3.50;1.60;;;;;;;5.79;100.00;100038.28;6201226;28;20054;-76
2022/12/24 01:05:36;;;;;;;3.17;2.08;;;;;;;5.80;100.00;100047.81;6200611;28;20050;-75
2022/12/24 01:08:38;;;;;;;3.47;1.83;;;;;;;5.77;100.00;100050.56;6200734;28;20487;-76
2022/12/24 01:11:39;;;;;;;2.90;1.67;;;;;;;5.77;100.00;100056.63;6200744;28;20057;-76
2022/12/24 01:14:41;;;;;;;3.63;1.95;;;;;;;5.75;100.00;100055.81;6200438;28;20072;-75
2022/12/24 01:17:42;;;;;;;3.88;1.85;;;;;;;5.76;100.00;100067.94;6200886;28;20061;-76
2022/12/24 01:20:45;;;;;;;2.72;1.77;;;;;;;5.77;100.00;100064.44;6200339;28;20058;-77
2022/12/24 01:23:47;;;;;;;2.10;1.45;;;;;;;5.76;100.00;100054.06;6200638;28;20054;-76
2022/12/24 01:26:48;;;;;;;3.25;2.05;;;;;;;5.79;100.00;100074.78;6200176;28;20055;-76
2022/12/24 01:29:49;;;;;;;2.75;1.90;;;;;;;5.81;100.00;100086.88;6200433;28;20057;-75
2022/12/24 01:32:51;;;;;;;3.05;1.65;;;;;;;5.81;100.00;100078.16;6200590;28;20054;-75
2022/12/24 01:35:53;;;;;;;3.60;1.83;;;;;;;5.79;100.00;100077.41;6199926;28;20072;-75
2022/12/24 01:38:55;;;;;;;3.05;1.77;;;;;;;5.81;100.00;100080.78;6200239;28;20057;-76
2022/12/24 01:45:40;;;;;;;4.20;1.85;;;;;;;5.81;100.00;100086.88;6200009;28;20054;-76
2022/12/24 01:48:44;;;;;;;2.70;1.23;;;;;;;5.81;100.00;100099.03;6200144;28;20069;-75
2022/12/24 01:51:51;;;;;;;1.88;1.13;;;;;;;5.81;100.00;100099.03;6199789;28;20053;-76
2022/12/24 01:54:55;;;;;;;1.73;1.15;;;;;;;5.81;100.00;100099.91;6199889;28;20073;-75
2022/12/24 01:57:59;;;;;;;4.22;1.42;;;;;;;5.80;100.00;100105.16;6199401;28;20446;-75
2022/12/24 02:01:01;;;;;;;1.63;1.08;;;;;;;5.81;100.00;100107.72;6199716;28;20053;-75
2022/12/24 02:04:09;;;;;;;2.58;1.60;;;;;;;5.80;100.00;100115.59;6199714;28;20083;-75
2022/12/24 02:07:12;;;;;;;2.80;1.67;;;;;;;5.81;100.00;100115.53;6199184;28;20054;-75
2022/12/24 02:10:13;;;;;;;2.60;1.42;;;;;;;5.82;100.00;100116.38;6199420;28;20521;-75
2022/12/24 02:13:17;;;;;;;1.75;1.30;;;;;;;5.82;100.00;100111.16;6199082;28;20050;-75
2022/12/24 02:16:29;;;;;;;3.33;1.85;;;;;;;5.80;100.00;100110.38;6199290;28;20054;-75
2022/12/24 02:20:01;;;;;;;3.65;1.73;;;;;;;5.81;100.00;100115.53;6198978;28;20057;-75
2022/12/24 02:23:38;;;;;;;1.85;1.38;;;;;;;5.77;100.00;100107.94;6199218;28;20054;-75
2022/12/24 02:27:00;;;;;;;1.75;1.20;;;;;;;5.78;100.00;100117.44;6198894;28;20049;-75
2022/12/24 02:30:08;;;;;;;2.58;1.25;;;;;;;5.77;100.00;100121.81;6198997;28;20046;-75
2022/12/24 02:33:25;;;;;;;1.73;1.00;;;;;;;5.81;100.00;100125.97;6198934;28;20057;-75
2022/12/24 02:36:33;;;;;;;2.97;1.85;;;;;;;5.80;100.00;100121.66;6198607;28;20046;-76
2022/12/24 02:39:41;;;;;;;1.90;1.23;;;;;;;5.83;100.00;100128.50;6198646;28;20134;-77
2022/12/24 02:42:48;;;;;;;1.92;1.30;;;;;;;5.83;100.00;100138.94;6198902;28;20049;-75
2022/12/24 02:45:55;;;;;;;1.77;1.15;;;;;;;5.82;100.00;100132.03;6198425;28;20049;-75
2022/12/24 02:48:58;;;;;;;2.75;1.63;;;;;;;5.87;100.00;100139.66;6198870;28;20061;-75
2022/12/24 02:52:00;;;;;;;1.67;1.40;;;;;;;5.95;100.00;100146.25;6198441;28;20046;-75
2022/12/24 02:55:04;;;;;;;2.75;1.60;;;;;;;6.00;100.00;100143.44;6198183;28;20050;-75
2022/12/24 02:58:29;;;;;;;3.50;1.80;;;;;;;6.05;100.00;100144.09;6198389;28;20050;-76
2022/12/24 03:01:43;;;;;;;3.58;2.03;;;;;;;6.04;100.00;100138.03;6198186;28;20051;-75
2022/12/24 03:04:52;;;;;;;3.30;1.70;;;;;;;6.08;100.00;100143.94;6198044;28;20057;-75
2022/12/24 03:08:03;;;;;;;4.05;2.00;;;;;;;6.10;100.00;100148.19;6198298;28;20054;-75
2022/12/24 03:11:08;;;;;;;4.05;2.40;;;;;;;6.14;100.00;100153.28;6197899;28;20403;-76
2022/12/24 03:14:10;;;;;;;6.05;2.25;;;;;;;6.18;100.00;100160.88;6198182;28;20053;-77
2022/12/24 03:17:13;;;;;;;5.57;2.63;;;;;;;6.24;100.00;100154.53;6197858;28;20047;-74
2022/12/24 03:20:18;;;;;;;3.83;2.28;;;;;;;6.30;100.00;100168.16;6198047;28;20053;-75
2022/12/24 03:23:20;;;;;;;6.53;3.30;;;;;;;6.37;100.00;100168.72;6198024;28;20042;-76
2022/12/24 03:26:21;;;;;;;5.18;2.83;;;;;;;6.44;100.00;100172.75;6197528;28;20055;-74
2022/12/24 03:29:23;;;;;;;6.82;2.70;;;;;;;6.46;100.00;100178.75;6197043;28;20061;-76
2022/12/24 03:32:28;;;;;;;3.97;2.45;;;;;;;6.59;100.00;100186.88;6197856;28;20046;-76
2022/12/24 03:35:30;;;;;;;8.95;3.15;;;;;;;6.69;100.00;100190.75;6197667;28;20051;-76
2022/12/24 03:38:31;;;;;;;6.28;2.53;;;;;;;6.80;100.00;100198.91;6197645;28;20407;-76
2022/12/24 03:41:33;;;;;;;4.93;2.40;;;;;;;6.92;100.00;100196.66;6197727;28;20058;-76
2022/12/24 03:44:34;;;;;;;5.63;2.78;;;;;;;7.06;100.00;100207.31;6197568;28;20510;-76
2022/12/24 03:47:37;;;;;;;6.22;3.20;;;;;;;7.06;100.00;100208.16;6197805;28;20050;-74
2022/12/24 03:50:38;;;;;;;4.03;2.45;;;;;;;7.12;100.00;100213.06;6200966;28;20046;-75
2022/12/24 03:53:39;;;;;;;6.35;2.47;;;;;;;7.16;100.00;100228.63;6202691;28;20054;-77
2022/12/24 03:56:41;;;;;;;5.38;2.65;;;;;;;7.20;100.00;100220.56;6202663;28;20745;-76
2022/12/24 03:59:42;;;;;;;6.28;3.25;;;;;;;7.26;100.00;100237.69;6202470;28;20054;-76
2022/12/24 04:02:45;;;;;;;7.53;3.17;;;;;;;7.31;100.00;100238.31;6202263;28;20517;-77
2022/12/24 04:05:46;;;;;;;6.30;3.10;;;;;;;7.33;100.00;100253.03;6202434;28;20062;-76
2022/12/24 04:08:48;;;;;;;7.22;4.07;;;;;;;7.37;100.00;100243.28;6202507;28;20057;-77
2022/12/24 04:11:49;;;;;;;6.40;2.90;;;;;;;7.42;100.00;100259.59;6202411;28;20057;-75
2022/12/24 04:14:50;;;;;;;5.30;2.75;;;;;;;7.44;100.00;100256.88;6202003;28;20103;-76
2022/12/24 04:17:53;;;;;;;9.55;3.33;;;;;;;7.48;100.00;100269.75;6201989;28;20525;-76
2022/12/24 04:20:55;;;;;;;5.78;2.17;;;;;;;7.50;100.00;100259.22;6202039;28;20050;-77
2022/12/24 04:23:56;;;;;;;3.33;2.13;;;;;;;7.50;100.00;100273.16;6201899;28;20050;-76
2022/12/24 04:26:58;;;;;;;3.08;1.92;;;;;;;7.53;100.00;100272.13;6201864;28;20056;-75
2022/12/24 04:29:59;;;;;;;4.03;2.33;;;;;;;7.54;100.00;100271.19;6201560;28;20054;-76
2022/12/24 04:33:02;;;;;;;5.18;2.92;;;;;;;7.54;100.00;100269.47;6201898;28;20046;-75
2022/12/24 04:36:05;;;;;;;7.50;1.70;;;;;;;7.56;100.00;100279.84;6201568;28;20043;-76
2022/12/24 04:39:06;;;;;;;6.53;2.42;;;;;;;7.61;100.00;100286.53;6201713;28;20050;-75
2022/12/24 04:42:07;;;;;;;6.22;1.65;;;;;;;7.62;100.00;100293.44;6201702;28;20070;-76
2022/12/24 04:45:09;;;;;;;8.25;1.90;;;;;;;7.61;100.00;100302.22;6201586;28;20054;-76
2022/12/24 04:48:12;;;;;;;2.67;1.50;;;;;;;7.62;100.00;100310.91;6201342;28;20498;-74
2022/12/24 04:51:14;;;;;;;3.13;1.67;;;;;;;7.62;100.00;100314.38;6200994;28;20154;-76
2022/12/24 04:54:15;;;;;;;2.75;1.67;;;;;;;7.62;100.00;100314.38;6201192;28;20050;-76
2022/12/24 04:57:17;;;;;;;3.03;1.30;;;;;;;7.61;100.00;100312.69;6201005;28;20046;-76
2022/12/24 05:00:18;;;;;;;1.95;1.27;;;;;;;7.65;100.00;100316.00;6200514;28;20057;-75
2022/12/24 05:03:21;;;;;;;11.43;1.60;;;;;;;7.66;100.00;100316.84;6201066;28;20061;-76
2022/12/24 05:06:25;;;;;;;6.50;1.90;;;;;;;7.71;100.00;100312.22;6200771;28;20509;-75
2022/12/24 05:09:26;;;;;;;3.33;2.33;;;;;;;7.66;100.00;100330.75;6200811;28;20057;-75
2022/12/24 05:12:27;;;;;;;5.22;1.90;;;;;;;7.66;100.00;100337.75;6200861;28;20070;-77
2022/12/24 05:15:29;;;;;;;10.15;1.77;;;;;;;7.66;100.00;100343.00;6200656;28;20049;-76
2022/12/24 05:18:31;;;;;;;2.85;2.00;;;;;;;7.68;100.00;100336.78;6200906;28;20053;-76
2022/12/24 05:21:33;;;;;;;5.88;1.65;;;;;;;7.72;100.00;100342.69;6200248;28;20490;-75
2022/12/24 05:27:53;;;;;;;9.02;1.85;;;;;;;7.71;100.00;100341.84;6200323;28;20058;-75
2022/12/24 05:30:54;;;;;;;8.85;1.60;;;;;;;7.72;100.00;100350.53;6191468;28;20050;-76
2022/12/24 05:33:57;;;;;;;12.82;2.42;;;;;;;7.74;100.00;100362.63;6176459;28;20057;-74
2022/12/24 05:36:58;;;;;;;13.45;1.88;;;;;;;7.77;100.00;100372.13;6176069;28;20074;-77
2022/12/24 05:40:00;;;;;;;7.65;2.13;;;;;;;7.78;100.00;100376.41;6176035;28;20054;-76
2022/12/24 05:43:01;;;;;;;8.82;1.80;;;;;;;7.78;100.00;100371.19;6197242;28;20421;-76
2022/12/24 05:46:08;;;;;;;2.92;1.40;;;;;;;7.80;100.00;100378.03;6224083;28;20276;-76
2022/12/24 05:49:10;;;;;;;6.85;2.17;;;;;;;7.85;100.00;100372.56;6224227;28;20057;-76
2022/12/24 05:52:12;;;;;;;13.85;2.33;;;;;;;7.93;100.00;100385.28;6215966;28;20050;-76
2022/12/24 05:55:13;;;;;;;6.60;2.08;;;;;;;7.91;100.00;100390.63;6219160;28;20050;-76
2022/12/24 05:58:15;;;;;;;8.75;3.10;;;;;;;7.87;100.00;100392.53;6224143;28;20050;-74
2022/12/24 06:01:16;;;;;;;7.07;2.17;;;;;;;7.93;100.00;100398.38;6217642;28;20053;-74
2022/12/24 06:04:19;;;;;;;9.88;2.45;;;;;;;7.93;100.00;100403.59;6223553;28;20480;-75
2022/12/24 06:07:21;;;;;;;15.88;2.72;;;;;;;7.94;100.00;100405.31;6223812;28;20046;-75
2022/12/24 06:10:22;;;;;;;12.07;2.45;;;;;;;7.92;100.00;100412.38;6218209;28;20486;-75
2022/12/24 06:13:24;;;;;;;24.80;2.67;;;;;;;7.90;100.00;100412.44;6216477;28;20058;-75
2022/12/24 06:16:26;;;;;;;11.48;2.75;;;;;;;7.87;100.00;100413.44;6219595;28;20044;-74
2022/12/24 06:19:29;;;;;;;11.93;2.28;;;;;;;7.86;100.00;100418.78;6223535;28;20053;-75
2022/12/24 06:22:30;;;;;;;14.93;2.55;;;;;;;7.85;100.00;100423.13;6223340;28;20050;-75
2022/12/24 06:25:31;;;;;;;5.93;2.67;;;;;;;7.84;100.00;100421.44;6223486;28;20061;-74
2022/12/24 06:28:35;;;;;;;6.22;2.30;;;;;;;7.88;100.00;100430.84;6223362;28;20054;-76
2022/12/24 06:31:36;;;;;;;19.70;2.65;;;;;;;7.89;100.00;100442.16;6223309;28;20050;-76
2022/12/24 06:34:39;;;;;;;15.10;2.28;;;;;;;7.95;100.00;100441.00;6223136;28;20444;-76
2022/12/24 06:37:40;;;;;;;13.52;2.00;;;;;;;7.93;100.00;100442.84;6223356;28;20046;-76
2022/12/24 06:40:43;;;;;;;9.18;2.60;;;;;;;7.93;100.00;100450.72;6223283;28;20076;-76
2022/12/24 06:43:45;;;;;;;18.58;3.30;;;;;;;7.96;100.00;100443.56;6223455;28;20057;-76
2022/12/24 06:46:46;;;;;;;17.13;2.75;;;;;;;7.96;100.00;100440.09;6222937;28;20049;-76
2022/12/24 06:49:49;;;;;;;11.18;2.65;;;;;;;7.96;100.00;100446.19;6223183;28;20053;-76
2022/12/24 06:52:50;;;;;;;5.35;2.78;;;;;;;7.97;100.00;100447.88;6222869;28;20054;-76
2022/12/24 06:55:52;;;;;;;11.35;2.58;;;;;;;7.96;100.00;100453.19;6222596;28;20049;-76
2022/12/24 06:58:53;;;;;;;6.00;2.10;;;;;;;7.98;100.00;100452.19;6222669;28;20425;-77
2022/12/24 07:01:54;;;;;;;13.07;2.75;;;;;;;7.98;100.00;100460.03;6222485;28;20058;-76
2022/12/24 07:04:57;;;;;;;11.20;2.63;;;;;;;7.93;100.00;100474.25;6222810;28;20053;-76
2022/12/24 07:07:58;;;;;;;16.52;2.25;;;;;;;7.88;100.00;100474.47;6222976;28;20413;-76
2022/12/24 07:11:00;;;;;;;13.07;2.17;;;;;;;7.94;100.00;100475.94;6222841;28;20050;-77
2022/12/24 07:14:01;;;;;;;18.67;2.28;;;;;;;7.88;100.00;100480.53;6222579;28;20045;-76
2022/12/24 07:17:02;;;;;;;9.63;1.70;;;;;;;7.86;100.00;100484.16;6222399;28;20445;-76
2022/12/24 07:20:08;;;;;;;12.07;2.17;;;;;;;7.88;100.00;100488.41;6222802;28;20053;-77
2022/12/24 07:23:09;;;;;;;14.02;2.47;;;;;;;7.83;100.00;100487.75;6223187;28;20502;-77
2022/12/24 07:26:11;;;;;;;12.98;1.95;;;;;;;7.80;100.00;100487.91;6222682;28;20046;-77
2022/12/24 07:29:12;;;;;;;31.48;2.60;;;;;;;7.82;100.00;100496.53;6222882;28;20525;-77
2022/12/24 07:32:14;;;;;;;17.80;2.30;;;;;;;7.84;100.00;100499.06;6222857;28;20080;-76
2022/12/24 07:35:17;;;;;;;16.20;2.55;;;;;;;7.83;100.00;100498.22;6222619;28;20045;-76
2022/12/24 07:38:18;;;;;;;11.32;1.67;;;;;;;7.85;100.00;100492.91;6222914;28;20046;-76
2022/12/24 07:41:19;;;;;;;23.98;2.05;;;;;;;7.75;100.00;100504.72;6222593;28;20053;-76
2022/12/24 07:44:21;;;;;;;11.38;1.65;;;;;;;7.74;100.00;100513.50;6222716;28;20537;-77
2022/12/24 07:47:22;;;;;;;12.15;1.63;;;;;;;7.71;100.00;100524.09;6222381;28;20042;-76
2022/12/24 07:50:25;;;;;;;11.35;2.55;;;;;;;7.66;100.00;100526.06;6222184;28;20046;-76
2022/12/24 07:53:28;;;;;;;21.05;1.88;;;;;;;7.66;100.00;100524.28;6211301;28;20041;-76
2022/12/24 07:56:29;;;;;;;11.88;2.45;;;;;;;7.68;100.00;100532.94;6215185;28;20042;-77
2022/12/24 07:59:30;;;;;;;6.65;1.50;;;;;;;7.63;100.00;100538.38;6222248;28;20480;-76
2022/12/24 08:02:32;;;;;;;14.68;2.10;;;;;;;7.60;100.00;100535.03;6222321;28;20061;-77
2022/12/24 08:05:35;;;;;;;10.85;2.38;;;;;;;7.62;100.00;100541.88;6219661;28;20489;-76
2022/12/24 08:08:37;;;;;;;21.52;2.60;;;;;;;7.62;100.00;100554.09;6222972;28;20059;-76
2022/12/24 08:11:38;;;;;;;11.77;1.65;;;;;;;7.62;100.00;100554.09;6223484;28;20054;-77
2022/12/24 08:14:39;;;;;;;8.88;2.05;;;;;;;7.64;100.00;100554.91;6223363;28;20050;-76
2022/12/24 08:17:41;;;;;;;6.65;1.27;;;;;;;7.65;100.00;100567.06;6224035;28;20046;-77
2022/12/24 08:20:43;;;;;;;9.95;2.05;;;;;;;7.66;100.00;100578.38;6222476;28;20050;-76
2022/12/24 08:23:46;;;;;;;15.50;1.10;;;;;;;7.68;100.00;100580.03;6221986;28;20054;-76
2022/12/24 08:26:47;;;;;;;10.80;2.80;;;;;;;7.65;100.00;100571.44;6222012;28;20042;-76
2022/12/24 08:29:49;;;;;;;8.85;2.15;;;;;;;7.66;100.00;100586.22;6222151;28;20050;-77
2022/12/24 08:32:50;;;;;;;12.00;1.83;;;;;;;7.63;100.00;100602.91;6221327;28;20140;-76
2022/12/24 08:35:54;;;;;;;26.92;2.47;;;;;;;7.59;100.00;100601.34;6223924;28;20077;-76
2022/12/24 08:38:55;;;;;;;12.70;1.95;;;;;;;7.59;100.00;100601.34;6226880;28;20061;-77
2022/12/24 08:41:57;;;;;;;9.73;1.38;;;;;;;7.56;100.00;100607.53;6226075;28;20046;-77
2022/12/24 08:44:58;;;;;;;12.23;2.00;;;;;;;7.61;100.00;100612.56;6226199;28;20453;-76
2022/12/24 08:48:00;;;;;;;3.17;1.40;;;;;;;7.66;100.00;100626.28;6226594;28;20052;-76
2022/12/24 08:51:06;;;;;;;21.75;2.10;;;;;;;7.65;100.00;100634.22;6227070;28;20054;-77
2022/12/24 08:54:08;;;;;;;18.52;2.78;;;;;;;7.67;100.00;100629.75;6210643;28;20072;-76
2022/12/24 08:57:09;;;;;;;13.27;2.25;;;;;;;7.69;100.00;100634.03;6201811;28;20046;-77
2022/12/24 09:00:13;;;;;;;7.03;1.73;;;;;;;7.70;100.00;100642.72;6178926;28;20470;-76
2022/12/24 09:03:15;;;;;;;15.05;1.95;;;;;;;7.70;100.00;100634.88;6194004;28;20046;-76
2022/12/24 09:06:18;;;;;;;17.50;2.17;;;;;;;7.74;100.00;100639.91;6202345;28;20573;-76
2022/12/24 09:09:19;;;;;;;12.68;1.67;;;;;;;7.74;100.00;100645.13;6201673;28;20054;-76
2022/12/24 09:12:20;;;;;;;22.25;2.83;;;;;;;7.75;100.00;100649.44;6201855;28;20054;-77
2022/12/24 09:15:22;;;;;;;7.32;2.15;;;;;;;7.81;100.00;100656.16;6201703;28;20046;-77
2022/12/24 09:18:23;;;;;;;9.65;2.78;;;;;;;7.84;100.00;100661.28;6202341;28;20042;-76
2022/12/24 09:21:26;;;;;;;19.58;2.15;;;;;;;7.88;100.00;100657.59;6202894;28;20077;-77
2022/12/24 09:24:27;;;;;;;16.10;2.70;;;;;;;7.91;100.00;100669.72;6202342;28;20057;-76
2022/12/24 09:31:25;;;;;;;14.07;1.95;;;;;;;8.04;100.00;100687.44;6201743;28;20030;-76
2022/12/24 09:34:26;;;;;;;19.42;4.03;;;;;;;8.14;100.00;100690.50;6202360;28;20061;-77
2022/12/24 09:37:29;;;;;;;18.60;2.58;;;;;;;8.16;100.00;100693.88;6201599;28;20054;-76
2022/12/24 09:40:36;;;;;;;14.25;2.05;;;;;;;8.22;100.00;100698.88;6210312;28;20049;-77
2022/12/24 09:43:38;;;;;;;7.68;2.28;;;;;;;8.22;100.00;100698.00;6225914;28;20045;-77
2022/12/24 09:46:44;;;;;;;18.38;2.45;;;;;;;8.23;100.00;100711.03;6225073;28;20429;-77
2022/12/24 09:49:49;;;;;;;11.00;2.40;;;;;;;8.20;100.00;100712.94;6225983;28;20050;-77
2022/12/24 09:52:53;;;;;;;10.25;2.78;;;;;;;8.21;100.00;100717.22;6225161;28;20576;-76
2022/12/24 09:55:58;;;;;;;11.48;2.10;;;;;;;8.24;100.00;100712.72;6225019;28;20153;-76
2022/12/24 09:59:01;;;;;;;17.80;2.65;;;;;;;8.29;100.00;100720.38;6225892;28;20053;-77
2022/12/24 10:02:02;;;;;;;12.90;2.35;;;;;;;8.32;100.00;100721.09;6226082;28;20527;-77
2022/12/24 10:05:13;;;;;;;16.95;3.03;;;;;;;8.35;100.00;100722.72;6226138;28;20049;-76
2022/12/24 10:08:26;;;;;;;15.20;2.58;;;;;;;8.35;100.00;100728.78;6226088;28;20073;-75
2022/12/24 10:11:36;;;;;;;10.70;2.70;;;;;;;8.41;100.00;100737.34;6225892;28;20046;-77
2022/12/24 10:14:45;;;;;;;;;;;;;;;8.42;100.00;100731.19;6225658;28;20129;-76
2022/12/24 10:17:56;;;;;;;15.50;2.92;;;;;;;8.43;100.00;100746.81;6224809;28;19929;-76
2022/12/24 10:21:04;;;;;;;9.40;2.65;;;;;;;8.44;100.00;100745.06;6224472;28;20046;-77
2022/12/24 10:24:13;;;;;;;14.73;2.83;;;;;;;8.43;100.00;100753.84;6225526;28;20057;-78
2022/12/24 10:27:19;;;;;;;10.07;2.70;;;;;;;8.47;100.00;100758.88;6225293;28;20057;-77
2022/12/24 10:30:22;;;;;;;19.90;3.65;;;;;;;8.47;100.00;100753.63;6226013;28;20072;-78
2022/12/24 10:33:31;;;;;;;17.42;3.25;;;;;;;8.49;100.00;100750.94;6226230;28;20064;-77
2022/12/24 10:36:33;;;;;;;11.75;2.45;;;;;;;8.52;100.00;100750.81;6225568;28;20057;-77
2022/12/24 10:39:36;;;;;;;14.05;3.50;;;;;;;8.63;100.00;100753.81;6225197;28;20529;-76
2022/12/24 10:42:41;;;;;;;17.40;3.20;;;;;;;8.64;100.00;100755.50;6225793;28;20061;-76
2022/12/24 10:45:46;;;;;;;11.20;3.33;;;;;;;8.63;100.00;100753.81;6226951;28;20050;-77
2022/12/24 10:48:53;;;;;;;6.10;2.85;;;;;;;8.62;100.00;100757.31;6226093;28;20054;-76
2022/12/24 10:51:57;;;;;;;12.60;3.60;;;;;;;8.60;100.00;100757.41;6226611;28;20050;-76
2022/12/24 10:55:11;;;;;;;11.00;2.88;;;;;;;8.61;100.00;100761.72;6226311;28;20057;-77
2022/12/24 10:58:16;;;;;;;10.38;3.15;;;;;;;8.56;100.00;100763.69;6216919;28;20057;-77
2022/12/24 11:01:18;;;;;;;7.13;2.33;;;;;;;8.55;100.00;100774.25;6211933;28;20124;-75
2022/12/24 11:04:21;;;;;;;13.50;2.83;;;;;;;8.61;100.00;100774.81;6216939;28;20527;-76
2022/12/24 11:07:23;;;;;;;13.70;2.67;;;;;;;8.67;100.00;100780.69;6216866;28;20406;-75
2022/12/24 11:10:26;;;;;;;11.10;2.90;;;;;;;8.76;100.00;100775.03;6197924;28;20513;-75
2022/12/24 11:13:30;;;;;;;19.23;3.78;;;;;;;8.91;100.00;100778.75;6198482;28;20054;-75
2022/12/24 11:16:34;;;;;;;10.23;2.83;;;;;;;8.85;100.00;100782.47;6186708;28;20050;-75
2022/12/24 11:19:38;;;;;;;13.98;2.42;;;;;;;8.86;100.00;100792.06;6193127;28;20124;-75
2022/12/24 11:22:41;;;;;;;14.75;2.85;;;;;;;8.84;100.00;100788.66;6222457;28;20511;-75
2022/12/24 11:25:48;;;;;;;14.73;2.80;;;;;;;8.81;100.00;100794.00;6222654;28;20104;-75
2022/12/24 11:29:13;;;;;;;8.00;2.80;;;;;;;8.82;100.00;100791.34;6222528;28;20042;-76
2022/12/24 11:32:18;;;;;;;11.00;2.53;;;;;;;8.79;100.00;100786.22;6206901;28;20098;-76
2022/12/24 11:35:21;;;;;;;20.70;2.45;;;;;;;8.82;100.00;100780.88;6194464;28;20049;-76
2022/12/24 11:38:25;;;;;;;11.38;3.15;;;;;;;8.91;100.00;100776.13;6197400;28;20116;-77
2022/12/24 11:41:36;;;;;;;4.82;2.45;;;;;;;9.00;100.00;100766.06;6197728;28;20517;-77
2022/12/24 11:44:48;;;;;;;12.02;2.22;;;;;;;9.10;100.00;100756.84;6197876;28;20058;-76
2022/12/24 11:47:50;;;;;;;13.80;2.83;;;;;;;9.08;100.00;100763.06;6198146;28;20494;-75
2022/12/24 11:50:57;;;;;;;13.77;2.97;;;;;;;9.19;100.00;100752.09;6197899;28;20061;-76
2022/12/24 11:54:05;;;;;;;11.65;2.97;;;;;;;9.19;100.00;100754.72;6197595;28;20046;-76
2022/12/24 11:57:12;;;;;;;11.13;2.55;;;;;;;9.22;100.00;100751.94;6196771;28;20050;-76
2022/12/24 12:00:14;;;;;;;13.70;2.92;;;;;;;9.16;100.00;100766.19;6197944;28;20060;-76
2022/12/24 12:03:28;;;;;;;8.43;2.92;;;;;;;9.20;100.00;100780.84;6198222;28;20046;-76
2022/12/24 12:06:36;;;;;;;12.38;2.67;;;;;;;9.23;100.00;100774.63;6198182;28;20069;-76
2022/12/24 12:09:42;;;;;;;8.25;2.78;;;;;;;9.24;100.00;100773.69;6184820;28;20043;-76
2022/12/24 12:12:58;;;;;;;20.70;3.25;;;;;;;9.20;100.00;100780.00;6189418;28;20054;-76
2022/12/24 12:16:07;;;;;;;8.10;2.47;;;;;;;9.11;100.00;100782.13;6200935;28;20065;-76
2022/12/24 12:19:10;;;;;;;13.90;3.03;;;;;;;9.08;100.00;100784.03;6179333;28;20051;-77
2022/12/24 12:22:22;;;;;;;15.23;2.50;;;;;;;9.05;100.00;100795.53;6179037;28;20486;-78
2022/12/24 12:25:31;;;;;;;11.35;3.00;;;;;;;9.00;100.00;100796.69;6187309;28;20422;-78
2022/12/24 12:28:41;;;;;;;10.60;2.78;;;;;;;9.02;100.00;100802.69;6203278;28;20071;-77
2022/12/24 12:31:47;;;;;;;8.90;2.15;;;;;;;9.03;100.00;100810.47;6203061;28;20058;-77
2022/12/24 12:35:09;;;;;;;8.38;2.05;;;;;;;9.10;100.00;100809.28;6202722;28;20046;-77
2022/12/24 12:38:15;;;;;;;9.38;3.22;;;;;;;9.09;100.00;100807.59;6202427;28;20047;-77
2022/12/24 12:41:30;;;;;;;8.07;3.08;;;;;;;9.07;100.00;100814.66;6202686;28;20054;-77
2022/12/24 12:44:53;;;;;;;9.85;2.45;;;;;;;9.05;100.00;100818.28;6202791;28;20046;-76
2022/12/24 12:48:08;;;;;;;10.45;2.65;;;;;;;9.03;100.00;100818.31;6203167;28;20094;-76
2022/12/24 12:51:17;;;;;;;11.23;2.88;;;;;;;9.05;100.00;100813.88;6202917;28;20144;-76
2022/12/24 12:54:35;;;;;;;11.02;2.45;;;;;;;9.04;100.00;100817.44;6202180;28;20061;-76
2022/12/24 12:57:38;;;;;;;8.60;1.95;;;;;;;8.99;100.00;100810.69;6202347;28;20050;-77
2022/12/24 13:00:45;;;;;;;5.28;1.52;;;;;;;8.94;100.00;100820.53;6202035;28;20410;-77
2022/12/24 13:04:05;;;;;;;10.23;2.13;;;;;;;8.89;100.00;100821.56;6202136;28;20426;-77
2022/12/24 13:07:32;;;;;;;15.27;1.85;;;;;;;8.83;100.00;100826.25;6201809;28;20057;-76
2022/12/24 13:10:49;;;;;;;8.07;2.22;;;;;;;8.75;100.00;100813.50;6200074;28;20054;-76
2022/12/24 13:14:12;;;;;;;4.45;1.60;;;;;;;8.74;100.00;100824.06;6194867;28;20505;-76
2022/12/24 13:17:44;;;;;;;5.55;1.60;;;;;;;8.73;100.00;100836.31;6197454;28;20054;-77
2022/12/24 13:20:48;;;;;;;12.07;2.33;;;;;;;8.76;100.00;100830.91;6200568;28;20469;-75
2022/12/24 13:23:50;;;;;;;3.88;1.52;;;;;;;8.78;100.00;100831.72;6201580;28;20070;-76
2022/12/24 13:27:05;;;;;;;3.58;1.80;;;;;;;8.77;100.00;100837.88;6201039;28;20486;-76
2022/12/24 13:30:35;;;;;;;6.60;1.52;;;;;;;8.75;100.00;100849.31;6200550;28;20050;-76
2022/12/24 13:33:48;;;;;;;6.80;1.63;;;;;;;8.75;100.00;100850.19;6200173;28;20050;-76
2022/12/24 13:37:19;;;;;;;11.27;1.50;;;;;;;8.75;100.00;100849.31;6198503;28;20438;-76
2022/12/24 13:40:26;;;;;;;8.95;1.73;;;;;;;8.71;100.00;100845.97;6199902;28;20169;-76
2022/12/24 13:44:03;;;;;;;7.75;2.13;;;;;;;8.69;100.00;100855.69;6200386;28;20446;-76
2022/12/24 13:47:29;;;;;;;11.13;1.98;;;;;;;8.66;100.00;100865.44;6200200;28;20517;-76
2022/12/24 13:50:37;;;;;;;7.22;2.00;;;;;;;8.67;100.00;100869.75;6200246;28;20054;-76
2022/12/24 13:53:42;;;;;;;13.57;1.63;;;;;;;8.72;100.00;100868.66;6200145;28;20046;-76
2022/12/24 13:56:44;;;;;;;11.80;1.77;;;;;;;8.65;100.00;100872.47;6199892;28;20054;-76
2022/12/24 13:59:46;;;;;;;9.20;1.98;;;;;;;8.62;100.00;100872.59;6199775;28;20053;-77
2022/12/24 14:02:54;;;;;;;5.95;2.05;;;;;;;8.68;100.00;100879.34;6199795;28;20046;-76
2022/12/24 14:05:59;;;;;;;14.40;3.55;;;;;;;8.66;100.00;100887.25;6199567;28;20057;-76
2022/12/24 14:09:09;;;;;;;5.93;1.88;;;;;;;8.71;100.00;100900.16;6199796;28;20588;-76
2022/12/24 14:12:31;;;;;;;8.30;1.90;;;;;;;8.70;100.00;100907.16;6199971;28;20426;-76
2022/12/24 14:16:08;;;;;;;5.03;1.63;;;;;;;8.69;100.00;100908.09;6199494;28;20438;-76
2022/12/24 14:19:14;;;;;;;2.78;1.27;;;;;;;8.62;100.00;100915.34;6199534;28;20047;-76
2022/12/24 14:22:25;;;;;;;6.53;2.33;;;;;;;8.57;100.00;100911.22;6199367;28;20060;-76
2022/12/24 14:25:27;;;;;;;4.25;1.77;;;;;;;8.58;100.00;100908.56;6199395;28;20054;-76
2022/12/24 14:28:35;;;;;;;14.38;2.08;;;;;;;8.51;100.00;100919.34;6199313;28;20050;-76